createdAt,value
2019-01-02T00:00:59.342Z,-0.80
2019-01-02T00:03:26.896Z,-0.70
2019-01-02T00:05:53.737Z,-0.80
2019-01-02T00:08:20.495Z,-0.80
2019-01-02T00:10:48.013Z,-0.70
2019-01-02T00:13:14.697Z,-0.70
2019-01-02T00:15:42.109Z,-0.60
2019-01-02T00:18:08.888Z,-0.60
2019-01-02T00:20:35.596Z,-0.60
2019-01-02T00:23:02.277Z,-0.50
2019-01-02T00:25:29.039Z,-0.40
2019-01-02T00:27:56.599Z,-0.30
2019-01-02T00:30:23.444Z,-0.30
2019-01-02T00:32:51.008Z,-0.20
2019-01-02T00:35:17.959Z,-0.20
2019-01-02T00:37:44.804Z,-0.20
2019-01-02T00:53:22.410Z,0.20
2019-01-02T00:55:49.212Z,0.10
2019-01-02T00:58:15.894Z,0.20
2019-01-02T11:21:14.356Z,-0.80
2019-01-02T11:26:49.951Z,-0.90
2019-01-02T11:29:33.508Z,-0.80
2019-01-02T11:32:07.085Z,-0.80
2019-01-02T11:34:48.442Z,-0.90
2019-01-02T19:23:52.878Z,-2.70
2019-01-02T19:26:19.538Z,-2.70
2019-01-02T19:28:46.200Z,-2.70
2019-01-02T19:31:12.916Z,-2.70
2019-01-02T19:33:39.582Z,-2.70
2019-01-02T19:36:06.222Z,-2.60
2019-01-02T19:38:33.685Z,-2.50
2019-01-02T19:41:01.091Z,-2.50
2019-01-02T19:43:28.899Z,-2.40
2019-01-02T19:45:57.110Z,-2.50
2019-01-02T19:48:24.988Z,-2.40
2019-01-02T19:50:52.447Z,-2.40
2019-01-02T19:53:19.461Z,-2.40
2019-01-02T19:55:47.869Z,-2.50
2019-01-02T19:58:15.729Z,-2.50
2019-01-02T20:00:43.288Z,-2.50
2019-01-02T20:03:11.580Z,-2.50
2019-01-02T20:05:39.460Z,-2.50
2019-01-02T20:08:07.406Z,-2.50
2019-01-02T20:10:35.162Z,-2.40
2019-01-02T20:13:03.719Z,-2.20
2019-01-02T20:15:31.837Z,-2.20
2019-01-02T20:18:00.864Z,-2.10
2019-01-02T20:20:29.019Z,-2.10
2019-01-02T20:22:57.062Z,-2.10
2019-01-02T20:25:24.095Z,-2.10
2019-01-02T20:27:50.799Z,-2.00
2019-01-02T20:30:17.485Z,-2.10
2019-01-02T20:32:45.152Z,-2.10
2019-01-02T20:35:13.015Z,-2.20
2019-01-02T20:37:40.695Z,-2.10
2019-01-02T20:40:09.220Z,-2.00
2019-01-02T20:42:37.816Z,-2.00
2019-01-02T20:45:06.735Z,-2.00
2019-01-02T20:47:35.555Z,-2.00
2019-01-02T20:50:02.357Z,-1.90
2019-01-02T20:52:29.051Z,-1.90
2019-01-02T20:54:55.730Z,-2.00
2019-01-02T20:57:22.595Z,-2.00
2019-01-02T20:59:49.260Z,-2.00
2019-01-02T21:02:15.930Z,-2.00
2019-01-02T21:04:43.407Z,-1.90
2019-01-02T21:07:10.126Z,-2.00
2019-01-02T21:09:36.807Z,-2.00
2019-01-02T21:12:03.658Z,-2.00
2019-01-02T21:14:30.486Z,-2.20
2019-01-02T21:16:57.229Z,-2.20
2019-01-02T21:19:24.072Z,-2.10
2019-01-02T21:21:50.814Z,-2.20
2019-01-02T21:24:17.656Z,-2.20
2019-01-02T21:26:44.395Z,-2.20
2019-01-02T21:29:12.158Z,-2.30
2019-01-02T21:31:38.932Z,-2.30
2019-01-02T21:34:06.768Z,-2.30
2019-01-02T21:36:33.507Z,-2.30
2019-01-02T21:39:00.270Z,-2.30
2019-01-02T21:41:26.987Z,-2.50
2019-01-02T21:43:54.445Z,-2.50
2019-01-02T21:46:22.414Z,-2.70
2019-01-02T21:48:49.369Z,-2.70
2019-01-02T21:51:16.413Z,-2.90
2019-01-02T21:53:43.251Z,-3.00
2019-01-02T21:56:09.991Z,-3.00
2019-01-02T21:58:36.735Z,-3.10
2019-01-02T22:01:04.082Z,-3.20
2019-01-02T22:03:31.006Z,-3.30
2019-01-02T22:05:59.242Z,-3.40
2019-01-02T22:08:26.249Z,-3.40
2019-01-02T22:10:52.912Z,-3.40
2019-01-02T22:13:21.543Z,-3.50
2019-01-02T22:15:49.459Z,-3.50
2019-01-02T22:18:16.802Z,-3.50
2019-01-02T22:20:43.531Z,-3.60
2019-01-02T22:23:10.898Z,-3.70
2019-01-02T22:25:37.556Z,-3.70
2019-01-02T22:28:04.237Z,-3.80
2019-01-02T22:30:32.334Z,-3.90
2019-01-02T22:33:00.156Z,-3.90
2019-01-02T22:35:27.145Z,-3.90
2019-01-02T22:37:54.548Z,-3.90
2019-01-02T22:40:23.738Z,-3.90
2019-01-02T22:42:51.473Z,-4.00
2019-01-02T22:45:18.545Z,-4.00
2019-01-02T22:47:46.320Z,-4.00
2019-01-02T22:50:15.926Z,-4.10
2019-01-02T22:52:41.929Z,-4.10
2019-01-02T22:55:08.685Z,-4.10
2019-01-02T22:57:35.422Z,-4.00
2019-01-02T23:00:02.262Z,-4.00
2019-01-02T23:02:30.280Z,-4.00
2019-01-02T23:08:03.529Z,-4.00
2019-01-02T23:10:45.324Z,-4.00
2019-01-02T23:13:17.997Z,-4.00
2019-01-02T23:15:50.887Z,-4.00
2019-01-02T23:18:23.669Z,-3.90
2019-01-02T23:21:05.571Z,-3.80
2019-01-02T23:26:29.663Z,-3.90
2019-01-02T23:29:01.523Z,-3.80
2019-01-02T23:34:24.937Z,-3.80
2019-01-02T23:36:52.881Z,-3.70
2019-01-02T23:39:21.665Z,-3.80
2019-01-02T23:41:58.441Z,-3.90
2019-01-02T23:44:25.592Z,-3.90
2019-01-02T23:46:57.245Z,-4.00
2019-01-02T23:49:24.808Z,-4.10
2019-01-02T23:54:49.622Z,-4.20
2019-01-02T23:57:23.223Z,-4.20
2019-01-02T23:59:51.912Z,-4.30
